sensor_id;sensor_type;location;lat;lon;timestamp;pressure;altitude;pressure_sealevel;temperature;humidity
11395;BME280;5753;54.402;10.220;2022-09-28T00:02:08;99541.06;;;20.06;48.76
11395;BME280;5753;54.402;10.220;2022-09-28T00:04:34;99539.03;;;20.32;47.85
11395;BME280;5753;54.402;10.220;2022-09-28T00:07:00;99541.28;;;19.39;50.20
11395;BME280;5753;54.402;10.220;2022-09-28T00:09:26;99543.16;;;19.98;48.71
11395;BME280;5753;54.402;10.220;2022-09-28T00:11:53;99542.25;;;19.99;48.58
11395;BME280;5753;54.402;10.220;2022-09-28T00:14:19;99540.84;;;19.28;50.30
11395;BME280;5753;54.402;10.220;2022-09-28T00:16:46;99544.09;;;18.68;52.24
11395;BME280;5753;54.402;10.220;2022-09-28T00:19:13;99538.31;;;19.89;48.87
11395;BME280;5753;54.402;10.220;2022-09-28T00:21:40;99540.53;;;19.78;48.88
11395;BME280;5753;54.402;10.220;2022-09-28T00:24:11;99537.78;;;19.39;49.73
11395;BME280;5753;54.402;10.220;2022-09-28T00:26:40;99541.94;;;18.07;53.50
11395;BME280;5753;54.402;10.220;2022-09-28T00:29:13;99532.03;;;19.73;49.14
11395;BME280;5753;54.402;10.220;2022-09-28T00:31:41;99530.22;;;19.55;49.26
11395;BME280;5753;54.402;10.220;2022-09-28T00:34:07;99525.59;;;18.74;51.98
11395;BME280;5753;54.402;10.220;2022-09-28T00:36:34;99525.28;;;19.25;50.13
11395;BME280;5753;54.402;10.220;2022-09-28T00:39:04;99529.16;;;19.59;49.41
11395;BME280;5753;54.402;10.220;2022-09-28T00:41:31;99533.13;;;18.81;50.73
11395;BME280;5753;54.402;10.220;2022-09-28T00:46:52;99526.44;;;19.40;50.41
11395;BME280;5753;54.402;10.220;2022-09-28T00:49:33;99532.22;;;20.09;47.73
11395;BME280;5753;54.402;10.220;2022-09-28T00:52:03;99526.34;;;19.63;49.24
11395;BME280;5753;54.402;10.220;2022-09-28T00:54:32;99524.19;;;19.73;49.01
11395;BME280;5753;54.402;10.220;2022-09-28T00:57:00;99526.19;;;19.46;49.55
11395;BME280;5753;54.402;10.220;2022-09-28T00:59:27;99526.63;;;17.98;53.02
11395;BME280;5753;54.402;10.220;2022-09-28T01:01:55;99524.25;;;18.85;51.80
11395;BME280;5753;54.402;10.220;2022-09-28T01:04:22;99519.75;;;17.96;53.09
11395;BME280;5753;54.402;10.220;2022-09-28T01:06:49;99526.53;;;18.24;53.65
11395;BME280;5753;54.402;10.220;2022-09-28T01:09:17;99515.81;;;19.85;48.99
11395;BME280;5753;54.402;10.220;2022-09-28T01:11:44;99522.34;;;18.44;52.35
11395;BME280;5753;54.402;10.220;2022-09-28T01:14:12;99508.78;;;19.03;51.27
11395;BME280;5753;54.402;10.220;2022-09-28T01:27:58;99520.19;;;18.78;52.17
11395;BME280;5753;54.402;10.220;2022-09-28T01:30:33;99513.22;;;19.65;49.27
11395;BME280;5753;54.402;10.220;2022-09-28T01:33:11;99509.94;;;20.00;48.45
11395;BME280;5753;54.402;10.220;2022-09-28T01:35:58;99512.81;;;19.54;49.65
11395;BME280;5753;54.402;10.220;2022-09-28T01:38:30;99512.03;;;19.72;49.67
11395;BME280;5753;54.402;10.220;2022-09-28T01:41:00;99516.84;;;19.40;50.11
11395;BME280;5753;54.402;10.220;2022-09-28T01:43:28;99509.41;;;20.31;48.21
11395;BME280;5753;54.402;10.220;2022-09-28T01:46:12;99526.53;;;19.79;48.56
11395;BME280;5753;54.402;10.220;2022-09-28T01:48:41;99519.72;;;20.16;48.40
11395;BME280;5753;54.402;10.220;2022-09-28T01:51:16;99516.06;;;19.79;49.19
11395;BME280;5753;54.402;10.220;2022-09-28T01:53:51;99519.41;;;19.83;49.14
11395;BME280;5753;54.402;10.220;2022-09-28T01:56:24;99523.22;;;19.96;49.19
11395;BME280;5753;54.402;10.220;2022-09-28T01:58:58;99517.41;;;19.89;49.41
11395;BME280;5753;54.402;10.220;2022-09-28T02:01:35;99519.22;;;18.81;51.99
11395;BME280;5753;54.402;10.220;2022-09-28T02:04:12;99516.19;;;20.17;48.88
11395;BME280;5753;54.402;10.220;2022-09-28T02:06:55;99505.91;;;20.51;47.59
11395;BME280;5753;54.402;10.220;2022-09-28T02:09:31;99514.75;;;20.67;47.01
11395;BME280;5753;54.402;10.220;2022-09-28T02:12:04;99517.25;;;20.52;47.32
11395;BME280;5753;54.402;10.220;2022-09-28T02:14:35;99508.53;;;20.31;48.30
11395;BME280;5753;54.402;10.220;2022-09-28T02:17:04;99519.47;;;20.01;48.52
11395;BME280;5753;54.402;10.220;2022-09-28T02:19:32;99509.56;;;19.69;49.68
11395;BME280;5753;54.402;10.220;2022-09-28T02:30:16;99503.47;;;20.28;47.83
11395;BME280;5753;54.402;10.220;2022-09-28T02:32:46;99507.47;;;20.55;47.63
11395;BME280;5753;54.402;10.220;2022-09-28T02:35:15;99511.78;;;19.58;49.13
11395;BME280;5753;54.402;10.220;2022-09-28T02:37:43;99510.50;;;19.46;49.75
11395;BME280;5753;54.402;10.220;2022-09-28T02:40:18;99517.50;;;19.86;49.04
11395;BME280;5753;54.402;10.220;2022-09-28T02:45:46;99514.38;;;19.15;51.34
11395;BME280;5753;54.402;10.220;2022-09-28T02:48:44;99515.19;;;20.19;48.18
11395;BME280;5753;54.402;10.220;2022-09-28T02:54:38;99525.38;;;19.66;49.25
11395;BME280;5753;54.402;10.220;2022-09-28T03:02:40;99513.16;;;19.87;49.04
11395;BME280;5753;54.402;10.220;2022-09-28T03:12:59;99513.94;;;18.12;53.91
11395;BME280;5753;54.402;10.220;2022-09-28T03:15:30;99511.94;;;18.89;51.76
11395;BME280;5753;54.402;10.220;2022-09-28T03:17:57;99508.72;;;18.59;52.30
11395;BME280;5753;54.402;10.220;2022-09-28T03:20:26;99516.50;;;18.14;52.55
11395;BME280;5753;54.402;10.220;2022-09-28T03:22:53;99505.88;;;18.42;52.48
11395;BME280;5753;54.402;10.220;2022-09-28T03:25:20;99508.72;;;19.04;51.22
11395;BME280;5753;54.402;10.220;2022-09-28T03:27:46;99516.56;;;17.36;55.57
11395;BME280;5753;54.402;10.220;2022-09-28T03:30:13;99509.28;;;18.44;53.34
11395;BME280;5753;54.402;10.220;2022-09-28T03:32:39;99501.66;;;18.84;51.25
11395;BME280;5753;54.402;10.220;2022-09-28T03:35:07;99507.50;;;19.13;50.72
11395;BME280;5753;54.402;10.220;2022-09-28T03:37:34;99502.69;;;18.80;51.88
11395;BME280;5753;54.402;10.220;2022-09-28T03:40:01;99503.09;;;19.35;49.25
11395;BME280;5753;54.402;10.220;2022-09-28T03:42:28;99499.97;;;19.05;50.45
11395;BME280;5753;54.402;10.220;2022-09-28T03:44:54;99498.41;;;19.43;49.39
11395;BME280;5753;54.402;10.220;2022-09-28T03:47:20;99497.56;;;18.55;51.40
11395;BME280;5753;54.402;10.220;2022-09-28T03:49:46;99492.38;;;18.77;50.77
11395;BME280;5753;54.402;10.220;2022-09-28T03:52:13;99500.28;;;18.76;51.37
11395;BME280;5753;54.402;10.220;2022-09-28T03:54:39;99495.28;;;18.92;50.37
11395;BME280;5753;54.402;10.220;2022-09-28T03:57:06;99498.28;;;19.46;48.56
11395;BME280;5753;54.402;10.220;2022-09-28T03:59:32;99498.78;;;19.56;48.33
11395;BME280;5753;54.402;10.220;2022-09-28T04:02:02;99505.03;;;17.70;52.80
11395;BME280;5753;54.402;10.220;2022-09-28T04:04:29;99494.66;;;19.29;48.92
11395;BME280;5753;54.402;10.220;2022-09-28T04:06:55;99507.59;;;19.54;48.60
11395;BME280;5753;54.402;10.220;2022-09-28T04:09:21;99503.88;;;19.37;48.37
11395;BME280;5753;54.402;10.220;2022-09-28T04:11:47;99504.56;;;19.42;48.36
11395;BME280;5753;54.402;10.220;2022-09-28T04:14:13;99505.75;;;19.76;47.36
11395;BME280;5753;54.402;10.220;2022-09-28T04:16:39;99496.94;;;19.99;46.95
11395;BME280;5753;54.402;10.220;2022-09-28T04:19:06;99488.78;;;19.66;47.83
11395;BME280;5753;54.402;10.220;2022-09-28T04:21:32;99501.91;;;20.24;46.38
11395;BME280;5753;54.402;10.220;2022-09-28T04:23:58;99502.25;;;20.55;45.96
11395;BME280;5753;54.402;10.220;2022-09-28T04:26:26;99497.28;;;20.49;46.18
11395;BME280;5753;54.402;10.220;2022-09-28T04:28:52;99490.19;;;20.89;45.08
11395;BME280;5753;54.402;10.220;2022-09-28T04:31:48;99497.97;;;20.34;46.28
11395;BME280;5753;54.402;10.220;2022-09-28T04:34:17;99493.78;;;19.50;47.58
11395;BME280;5753;54.402;10.220;2022-09-28T04:36:45;99498.63;;;20.00;47.23
11395;BME280;5753;54.402;10.220;2022-09-28T04:39:12;99496.25;;;20.33;45.99
11395;BME280;5753;54.402;10.220;2022-09-28T04:41:40;99503.28;;;19.73;47.08
11395;BME280;5753;54.402;10.220;2022-09-28T04:44:07;99500.47;;;20.17;46.33
11395;BME280;5753;54.402;10.220;2022-09-28T04:46:33;99502.88;;;20.21;46.62
11395;BME280;5753;54.402;10.220;2022-09-28T04:49:00;99501.97;;;20.42;45.64
11395;BME280;5753;54.402;10.220;2022-09-28T04:51:28;99500.88;;;20.65;45.38
11395;BME280;5753;54.402;10.220;2022-09-28T04:53:55;99497.59;;;19.21;48.48
11395;BME280;5753;54.402;10.220;2022-09-28T04:56:21;99497.78;;;19.99;46.54
11395;BME280;5753;54.402;10.220;2022-09-28T04:58:47;99494.75;;;20.27;46.43
11395;BME280;5753;54.402;10.220;2022-09-28T05:01:16;99498.56;;;20.20;45.94
11395;BME280;5753;54.402;10.220;2022-09-28T05:03:43;99497.63;;;18.99;48.17
11395;BME280;5753;54.402;10.220;2022-09-28T05:06:13;99499.59;;;19.77;47.17
11395;BME280;5753;54.402;10.220;2022-09-28T05:08:40;99501.03;;;20.04;46.61
11395;BME280;5753;54.402;10.220;2022-09-28T05:11:10;99496.22;;;19.95;46.64
11395;BME280;5753;54.402;10.220;2022-09-28T05:13:44;99501.03;;;19.84;46.66
11395;BME280;5753;54.402;10.220;2022-09-28T05:16:12;99500.94;;;19.67;47.03
11395;BME280;5753;54.402;10.220;2022-09-28T05:18:39;99493.94;;;19.25;48.04
11395;BME280;5753;54.402;10.220;2022-09-28T05:21:13;99488.31;;;19.34;47.51
11395;BME280;5753;54.402;10.220;2022-09-28T05:23:40;99498.44;;;19.84;46.35
11395;BME280;5753;54.402;10.220;2022-09-28T05:26:10;99503.59;;;19.65;46.63
11395;BME280;5753;54.402;10.220;2022-09-28T05:28:36;99503.16;;;20.15;45.19
11395;BME280;5753;54.402;10.220;2022-09-28T05:31:03;99501.25;;;19.79;46.19
11395;BME280;5753;54.402;10.220;2022-09-28T05:33:31;99502.47;;;19.50;46.91
11395;BME280;5753;54.402;10.220;2022-09-28T05:35:57;99497.94;;;19.56;46.79
11395;BME280;5753;54.402;10.220;2022-09-28T05:38:24;99490.22;;;20.12;45.22
11395;BME280;5753;54.402;10.220;2022-09-28T05:40:51;99492.38;;;19.21;46.67
11395;BME280;5753;54.402;10.220;2022-09-28T05:43:17;99497.78;;;19.37;46.73
11395;BME280;5753;54.402;10.220;2022-09-28T05:45:43;99499.97;;;20.08;45.41
11395;BME280;5753;54.402;10.220;2022-09-28T05:48:09;99492.41;;;20.60;44.68
11395;BME280;5753;54.402;10.220;2022-09-28T05:50:35;99502.75;;;19.65;46.37
11395;BME280;5753;54.402;10.220;2022-09-28T05:53:06;99491.38;;;18.58;48.73
11395;BME280;5753;54.402;10.220;2022-09-28T05:55:34;99491.00;;;20.14;45.37
11395;BME280;5753;54.402;10.220;2022-09-28T05:58:02;99497.34;;;19.27;47.46
11395;BME280;5753;54.402;10.220;2022-09-28T06:00:30;99492.69;;;19.34;46.72
11395;BME280;5753;54.402;10.220;2022-09-28T06:03:02;99497.47;;;19.24;47.69
11395;BME280;5753;54.402;10.220;2022-09-28T06:05:29;99499.13;;;20.27;45.36
11395;BME280;5753;54.402;10.220;2022-09-28T06:07:57;99499.28;;;20.44;45.04
11395;BME280;5753;54.402;10.220;2022-09-28T06:10:24;99504.63;;;20.79;44.20
11395;BME280;5753;54.402;10.220;2022-09-28T06:12:55;99505.59;;;20.95;44.09
11395;BME280;5753;54.402;10.220;2022-09-28T06:15:23;99503.78;;;20.59;44.60
11395;BME280;5753;54.402;10.220;2022-09-28T06:17:58;99508.44;;;20.71;44.16
11395;BME280;5753;54.402;10.220;2022-09-28T06:20:30;99507.09;;;21.36;43.06
11395;BME280;5753;54.402;10.220;2022-09-28T06:22:57;99512.72;;;21.10;43.31
11395;BME280;5753;54.402;10.220;2022-09-28T06:25:23;99507.06;;;21.00;43.82
11395;BME280;5753;54.402;10.220;2022-09-28T06:28:00;99511.69;;;20.77;44.00
11395;BME280;5753;54.402;10.220;2022-09-28T06:30:28;99503.72;;;20.22;45.27
11395;BME280;5753;54.402;10.220;2022-09-28T06:32:56;99510.66;;;20.43;44.92
11395;BME280;5753;54.402;10.220;2022-09-28T06:35:24;99507.84;;;19.68;45.79
11395;BME280;5753;54.402;10.220;2022-09-28T06:37:51;99512.16;;;20.49;45.07
11395;BME280;5753;54.402;10.220;2022-09-28T06:40:18;99509.28;;;19.95;46.13
11395;BME280;5753;54.402;10.220;2022-09-28T06:42:53;99519.31;;;21.00;43.63
11395;BME280;5753;54.402;10.220;2022-09-28T06:45:19;99512.09;;;21.58;42.71
11395;BME280;5753;54.402;10.220;2022-09-28T06:47:55;99511.31;;;21.03;43.59
11395;BME280;5753;54.402;10.220;2022-09-28T06:50:23;99523.81;;;21.51;42.75
11395;BME280;5753;54.402;10.220;2022-09-28T06:52:51;99521.91;;;20.83;43.05
11395;BME280;5753;54.402;10.220;2022-09-28T06:55:18;99527.34;;;20.97;43.70
11395;BME280;5753;54.402;10.220;2022-09-28T06:57:44;99534.28;;;20.98;43.49
11395;BME280;5753;54.402;10.220;2022-09-28T07:00:11;99531.91;;;21.29;43.17
11395;BME280;5753;54.402;10.220;2022-09-28T07:02:37;99533.53;;;21.32;43.16
11395;BME280;5753;54.402;10.220;2022-09-28T07:05:04;99537.28;;;21.26;43.16
11395;BME280;5753;54.402;10.220;2022-09-28T07:07:31;99538.69;;;21.51;43.01
11395;BME280;5753;54.402;10.220;2022-09-28T07:09:57;99549.59;;;21.24;43.09
11395;BME280;5753;54.402;10.220;2022-09-28T07:12:23;99545.53;;;21.00;43.82
11395;BME280;5753;54.402;10.220;2022-09-28T07:14:50;99547.56;;;21.12;42.85
11395;BME280;5753;54.402;10.220;2022-09-28T07:17:24;99551.66;;;21.71;42.40
11395;BME280;5753;54.402;10.220;2022-09-28T07:19:50;99549.63;;;22.28;41.72
11395;BME280;5753;54.402;10.220;2022-09-28T07:22:18;99560.47;;;21.87;41.69
11395;BME280;5753;54.402;10.220;2022-09-28T07:24:45;99555.97;;;22.24;41.44
11395;BME280;5753;54.402;10.220;2022-09-28T07:27:11;99565.63;;;21.54;42.34
11395;BME280;5753;54.402;10.220;2022-09-28T07:29:37;99570.34;;;21.10;43.04
11395;BME280;5753;54.402;10.220;2022-09-28T07:32:03;99572.38;;;21.22;42.88
11395;BME280;5753;54.402;10.220;2022-09-28T07:34:30;99575.63;;;20.72;44.03
11395;BME280;5753;54.402;10.220;2022-09-28T07:36:56;99577.03;;;20.42;44.57
11395;BME280;5753;54.402;10.220;2022-09-28T07:39:23;99582.75;;;20.30;44.85
11395;BME280;5753;54.402;10.220;2022-09-28T07:41:49;99572.94;;;19.10;47.36
11395;BME280;5753;54.402;10.220;2022-09-28T07:44:16;99574.53;;;19.98;45.70
11395;BME280;5753;54.402;10.220;2022-09-28T07:46:43;99577.53;;;20.50;44.68
11395;BME280;5753;54.402;10.220;2022-09-28T07:49:09;99581.38;;;19.80;45.41
11395;BME280;5753;54.402;10.220;2022-09-28T07:51:36;99579.25;;;20.10;45.64
11395;BME280;5753;54.402;10.220;2022-09-28T07:54:02;99583.22;;;18.91;47.47
11395;BME280;5753;54.402;10.220;2022-09-28T07:56:28;99594.19;;;18.29;49.52
11395;BME280;5753;54.402;10.220;2022-09-28T07:58:55;99586.28;;;19.68;46.37
11395;BME280;5753;54.402;10.220;2022-09-28T08:01:21;99586.81;;;18.40;48.80
11395;BME280;5753;54.402;10.220;2022-09-28T08:03:48;99590.41;;;19.30;47.29
11395;BME280;5753;54.402;10.220;2022-09-28T08:06:15;99585.88;;;19.13;47.78
11395;BME280;5753;54.402;10.220;2022-09-28T08:08:43;99590.28;;;19.33;46.88
11395;BME280;5753;54.402;10.220;2022-09-28T08:11:14;99598.56;;;19.22;47.09
11395;BME280;5753;54.402;10.220;2022-09-28T08:13:42;99599.56;;;20.24;45.23
11395;BME280;5753;54.402;10.220;2022-09-28T08:16:11;99599.88;;;19.76;46.29
11395;BME280;5753;54.402;10.220;2022-09-28T08:18:37;99598.31;;;19.72;46.41
11395;BME280;5753;54.402;10.220;2022-09-28T08:21:04;99593.38;;;20.47;44.81
11395;BME280;5753;54.402;10.220;2022-09-28T08:23:49;99600.47;;;20.83;44.47
11395;BME280;5753;54.402;10.220;2022-09-28T08:26:16;99601.16;;;21.43;43.03
11395;BME280;5753;54.402;10.220;2022-09-28T08:28:43;99598.78;;;20.82;44.14
11395;BME280;5753;54.402;10.220;2022-09-28T08:31:10;99600.41;;;21.03;43.19
11395;BME280;5753;54.402;10.220;2022-09-28T08:33:36;99612.06;;;20.38;44.81
11395;BME280;5753;54.402;10.220;2022-09-28T08:36:03;99606.78;;;21.35;43.28
11395;BME280;5753;54.402;10.220;2022-09-28T08:38:30;99614.03;;;20.53;44.71
11395;BME280;5753;54.402;10.220;2022-09-28T08:43:56;99605.72;;;20.83;44.04
11395;BME280;5753;54.402;10.220;2022-09-28T08:46:30;99606.69;;;20.61;44.14
11395;BME280;5753;54.402;10.220;2022-09-28T08:49:21;99608.75;;;20.34;44.80
11395;BME280;5753;54.402;10.220;2022-09-28T08:52:15;99612.34;;;20.71;44.88
11395;BME280;5753;54.402;10.220;2022-09-28T08:54:57;99610.91;;;21.20;43.74
11395;BME280;5753;54.402;10.220;2022-09-28T08:57:59;99614.81;;;19.94;45.47
11395;BME280;5753;54.402;10.220;2022-09-28T09:00:28;99612.09;;;20.96;43.89
11395;BME280;5753;54.402;10.220;2022-09-28T09:02:57;99615.19;;;21.04;43.73
11395;BME280;5753;54.402;10.220;2022-09-28T09:06:13;99609.94;;;21.42;43.92
11395;BME280;5753;54.402;10.220;2022-09-28T09:22:50;99620.59;;;23.71;40.32
11395;BME280;5753;54.402;10.220;2022-09-28T09:48:13;99629.19;;;23.89;37.93
11395;BME280;5753;54.402;10.220;2022-09-28T09:51:30;99632.81;;;23.72;38.08
11395;BME280;5753;54.402;10.220;2022-09-28T09:53:46;99630.91;;;22.80;39.39
11395;BME280;5753;54.402;10.220;2022-09-28T09:56:22;99630.13;;;23.27;38.59
11395;BME280;5753;54.402;10.220;2022-09-28T09:58:54;99630.38;;;24.43;36.80
11395;BME280;5753;54.402;10.220;2022-09-28T10:01:38;99624.63;;;24.94;36.28
11395;BME280;5753;54.402;10.220;2022-09-28T10:04:11;99630.13;;;22.78;38.59
11395;BME280;5753;54.402;10.220;2022-09-28T10:06:40;99633.09;;;24.12;37.48
11395;BME280;5753;54.402;10.220;2022-09-28T10:09:21;99631.28;;;23.68;37.31
11395;BME280;5753;54.402;10.220;2022-09-28T10:11:48;99639.09;;;24.30;37.63
11395;BME280;5753;54.402;10.220;2022-09-28T10:14:21;99634.19;;;23.94;37.62
11395;BME280;5753;54.402;10.220;2022-09-28T10:16:49;99632.47;;;24.23;37.19
11395;BME280;5753;54.402;10.220;2022-09-28T10:19:24;99640.34;;;24.38;37.03
11395;BME280;5753;54.402;10.220;2022-09-28T10:21:50;99637.06;;;23.59;38.25
11395;BME280;5753;54.402;10.220;2022-09-28T10:24:35;99637.09;;;24.19;37.61
11395;BME280;5753;54.402;10.220;2022-09-28T10:27:10;99642.78;;;24.56;36.70
11395;BME280;5753;54.402;10.220;2022-09-28T10:29:58;99650.34;;;24.62;36.91
11395;BME280;5753;54.402;10.220;2022-09-28T10:32:46;99639.03;;;24.45;36.85
11395;BME280;5753;54.402;10.220;2022-09-28T10:35:21;99644.91;;;22.30;39.67
11395;BME280;5753;54.402;10.220;2022-09-28T10:40:28;99644.88;;;22.47;39.84
11395;BME280;5753;54.402;10.220;2022-09-28T10:45:57;99646.16;;;23.69;37.89
11395;BME280;5753;54.402;10.220;2022-09-28T10:48:25;99645.38;;;23.67;38.10
11395;BME280;5753;54.402;10.220;2022-09-28T10:51:01;99638.31;;;23.52;38.56
11395;BME280;5753;54.402;10.220;2022-09-28T10:53:28;99657.63;;;24.28;37.06
11395;BME280;5753;54.402;10.220;2022-09-28T10:55:58;99650.06;;;24.22;37.29
11395;BME280;5753;54.402;10.220;2022-09-28T10:58:35;99652.38;;;24.57;37.07
11395;BME280;5753;54.402;10.220;2022-09-28T11:01:11;99659.47;;;22.53;39.63
11395;BME280;5753;54.402;10.220;2022-09-28T11:03:58;99654.53;;;23.13;38.79
11395;BME280;5753;54.402;10.220;2022-09-28T11:06:31;99660.59;;;23.92;37.72
11395;BME280;5753;54.402;10.220;2022-09-28T11:09:08;99655.66;;;22.76;38.47
11395;BME280;5753;54.402;10.220;2022-09-28T11:11:46;99656.47;;;22.43;39.24
11395;BME280;5753;54.402;10.220;2022-09-28T11:14:31;99662.03;;;22.20;40.27
11395;BME280;5753;54.402;10.220;2022-09-28T11:19:47;99664.28;;;22.78;39.01
11395;BME280;5753;54.402;10.220;2022-09-28T11:24:46;99668.78;;;24.62;36.92
11395;BME280;5753;54.402;10.220;2022-09-28T11:27:21;99673.47;;;24.12;37.38
11395;BME280;5753;54.402;10.220;2022-09-28T11:29:56;99669.72;;;25.18;35.51
11395;BME280;5753;54.402;10.220;2022-09-28T11:32:26;99669.34;;;25.24;34.68
11395;BME280;5753;54.402;10.220;2022-09-28T11:34:56;99666.06;;;24.19;36.62
11395;BME280;5753;54.402;10.220;2022-09-28T11:48:56;99679.03;;;24.22;36.88
11395;BME280;5753;54.402;10.220;2022-09-28T11:51:28;99683.38;;;23.77;36.63
11395;BME280;5753;54.402;10.220;2022-09-28T11:54:02;99684.88;;;24.86;36.41
11395;BME280;5753;54.402;10.220;2022-09-28T11:56:33;99684.91;;;24.27;36.51
11395;BME280;5753;54.402;10.220;2022-09-28T12:02:09;99678.97;;;23.62;37.83
11395;BME280;5753;54.402;10.220;2022-09-28T12:04:45;99678.75;;;24.85;36.42
11395;BME280;5753;54.402;10.220;2022-09-28T12:09:59;99686.69;;;25.14;36.21
11395;BME280;5753;54.402;10.220;2022-09-28T12:12:34;99689.84;;;25.33;35.28
11395;BME280;5753;54.402;10.220;2022-09-28T12:15:24;99688.72;;;26.05;34.20
11395;BME280;5753;54.402;10.220;2022-09-28T12:18:04;99692.97;;;26.20;34.47
11395;BME280;5753;54.402;10.220;2022-09-28T12:20:34;99685.66;;;26.63;34.18
11395;BME280;5753;54.402;10.220;2022-09-28T12:23:19;99690.84;;;27.40;32.22
11395;BME280;5753;54.402;10.220;2022-09-28T12:25:58;99688.47;;;27.24;32.77
11395;BME280;5753;54.402;10.220;2022-09-28T12:28:38;99693.03;;;26.96;31.75
11395;BME280;5753;54.402;10.220;2022-09-28T12:31:15;99682.16;;;27.38;32.38
11395;BME280;5753;54.402;10.220;2022-09-28T12:33:47;99688.38;;;26.87;32.58
11395;BME280;5753;54.402;10.220;2022-09-28T12:36:29;99681.81;;;28.27;30.38
11395;BME280;5753;54.402;10.220;2022-09-28T12:55:37;99697.59;;;27.56;28.93
11395;BME280;5753;54.402;10.220;2022-09-28T13:09:16;99696.13;;;23.69;35.38
11395;BME280;5753;54.402;10.220;2022-09-28T13:12:21;99693.03;;;25.38;33.24
11395;BME280;5753;54.402;10.220;2022-09-28T13:15:07;99707.16;;;25.51;32.98
11395;BME280;5753;54.402;10.220;2022-09-28T13:23:01;99695.41;;;25.84;32.10
11395;BME280;5753;54.402;10.220;2022-09-28T13:25:31;99690.28;;;26.34;32.05
11395;BME280;5753;54.402;10.220;2022-09-28T13:28:02;99699.59;;;26.65;30.92
11395;BME280;5753;54.402;10.220;2022-09-28T13:30:31;99702.16;;;27.05;29.86
11395;BME280;5753;54.402;10.220;2022-09-28T13:33:01;99699.09;;;28.19;30.06
11395;BME280;5753;54.402;10.220;2022-09-28T13:35:29;99691.63;;;28.13;28.81
11395;BME280;5753;54.402;10.220;2022-09-28T13:44:11;99691.72;;;29.81;26.46
11395;BME280;5753;54.402;10.220;2022-09-28T13:49:28;99690.88;;;35.38;22.15
11395;BME280;5753;54.402;10.220;2022-09-28T14:02:55;99696.69;;;37.91;17.53
11395;BME280;5753;54.402;10.220;2022-09-28T14:10:47;99687.28;;;34.61;19.72
11395;BME280;5753;54.402;10.220;2022-09-28T14:16:34;99697.16;;;37.94;18.51
11395;BME280;5753;54.402;10.220;2022-09-28T14:19:15;99705.53;;;38.74;17.14
11395;BME280;5753;54.402;10.220;2022-09-28T14:32:40;99702.09;;;38.05;17.43
11395;BME280;5753;54.402;10.220;2022-09-28T14:35:18;99695.19;;;36.22;18.34
11395;BME280;5753;54.402;10.220;2022-09-28T14:37:48;99691.34;;;35.33;19.39
11395;BME280;5753;54.402;10.220;2022-09-28T14:40:59;99701.91;;;37.84;18.10
11395;BME280;5753;54.402;10.220;2022-09-28T14:48:54;99703.63;;;38.83;17.37
11395;BME280;5753;54.402;10.220;2022-09-28T14:59:27;99705.50;;;37.76;17.39
11395;BME280;5753;54.402;10.220;2022-09-28T15:02:04;99700.22;;;40.19;16.51
11395;BME280;5753;54.402;10.220;2022-09-28T15:04:34;99699.50;;;40.81;15.57
11395;BME280;5753;54.402;10.220;2022-09-28T15:07:04;99700.94;;;41.18;14.84
11395;BME280;5753;54.402;10.220;2022-09-28T15:09:34;99698.09;;;40.64;15.29
11395;BME280;5753;54.402;10.220;2022-09-28T15:12:04;99701.75;;;39.13;16.38
11395;BME280;5753;54.402;10.220;2022-09-28T15:14:34;99707.84;;;39.51;16.49
11395;BME280;5753;54.402;10.220;2022-09-28T15:17:11;99704.22;;;40.44;15.94
11395;BME280;5753;54.402;10.220;2022-09-28T15:22:25;99702.09;;;38.05;17.80
11395;BME280;5753;54.402;10.220;2022-09-28T15:24:56;99703.84;;;38.59;17.11
11395;BME280;5753;54.402;10.220;2022-09-28T15:27:24;99709.22;;;38.21;17.09
11395;BME280;5753;54.402;10.220;2022-09-28T15:32:26;99710.13;;;36.65;18.08
11395;BME280;5753;54.402;10.220;2022-09-28T15:34:53;99704.34;;;35.54;19.02
11395;BME280;5753;54.402;10.220;2022-09-28T15:37:31;99711.94;;;34.29;20.52
11395;BME280;5753;54.402;10.220;2022-09-28T15:40:01;99719.56;;;33.16;22.35
11395;BME280;5753;54.402;10.220;2022-09-28T15:42:33;99711.50;;;33.53;22.03
11395;BME280;5753;54.402;10.220;2022-09-28T15:47:41;99722.03;;;35.39;19.98
11395;BME280;5753;54.402;10.220;2022-09-28T15:50:31;99718.16;;;35.33;20.02
11395;BME280;5753;54.402;10.220;2022-09-28T15:53:05;99719.22;;;32.26;22.63
11395;BME280;5753;54.402;10.220;2022-09-28T15:55:36;99715.75;;;30.64;25.36
11395;BME280;5753;54.402;10.220;2022-09-28T15:58:17;99719.81;;;28.96;27.00
11395;BME280;5753;54.402;10.220;2022-09-28T16:00:48;99713.56;;;28.39;27.55
11395;BME280;5753;54.402;10.220;2022-09-28T16:08:22;99722.00;;;23.61;36.08
11395;BME280;5753;54.402;10.220;2022-09-28T16:11:22;99721.50;;;25.33;33.73
11395;BME280;5753;54.402;10.220;2022-09-28T16:14:05;99733.19;;;23.49;36.30
11395;BME280;5753;54.402;10.220;2022-09-28T16:16:49;99725.91;;;22.02;39.67
11395;BME280;5753;54.402;10.220;2022-09-28T16:19:22;99720.03;;;23.96;36.86
11395;BME280;5753;54.402;10.220;2022-09-28T16:21:51;99732.81;;;23.72;36.97
11395;BME280;5753;54.402;10.220;2022-09-28T16:24:27;99727.84;;;23.98;36.33
11395;BME280;5753;54.402;10.220;2022-09-28T16:27:06;99741.13;;;22.83;37.99
11395;BME280;5753;54.402;10.220;2022-09-28T16:29:37;99732.06;;;24.16;35.43
11395;BME280;5753;54.402;10.220;2022-09-28T16:35:18;99746.09;;;22.70;37.99
11395;BME280;5753;54.402;10.220;2022-09-28T16:37:46;99740.75;;;23.55;36.62
11395;BME280;5753;54.402;10.220;2022-09-28T16:40:13;99751.81;;;21.15;41.16
11395;BME280;5753;54.402;10.220;2022-09-28T16:42:41;99749.97;;;23.31;37.17
11395;BME280;5753;54.402;10.220;2022-09-28T16:45:17;99747.69;;;23.24;37.44
11395;BME280;5753;54.402;10.220;2022-09-28T16:47:45;99751.66;;;21.76;40.07
11395;BME280;5753;54.402;10.220;2022-09-28T16:50:14;99743.78;;;23.32;37.12
11395;BME280;5753;54.402;10.220;2022-09-28T16:52:42;99749.81;;;23.34;37.07
11395;BME280;5753;54.402;10.220;2022-09-28T16:55:27;99752.97;;;22.04;39.67